Time;durP1;ratioP1;P1;durP2;ratioP2;P2;SDS_P1;SDS_P2;PMS_P1;PMS_P2;Temp;Humidity;BMP_temperature;BMP_pressure;BME280_temperature;BME280_humidity;BME280_pressure;Samples;Min_cycle;Max_cycle;Signal;HPM_P1;HPM_P2
2024/04/16 00:00:44;;;;;;;4.80;2.20;;;;;;;7.19;74.10;97197.19;5331698;26;20000;-75
2024/04/16 00:03:11;;;;;;;5.90;2.65;;;;;;;7.06;75.12;97183.34;5365257;26;20072;-74
2024/04/16 00:05:36;;;;;;;3.17;2.20;;;;;;;7.15;75.18;97187.22;5388180;26;20000;-73
2024/04/16 00:08:01;;;;;;;2.38;2.10;;;;;;;7.09;75.05;97204.28;5409894;26;20015;-74
2024/04/16 00:10:28;;;;;;;5.55;2.30;;;;;;;6.95;76.07;97193.91;5375327;26;20008;-74
2024/04/16 00:12:58;;;;;;;3.90;2.30;;;;;;;7.08;75.29;97198.13;5339258;26;20033;-74
2024/04/16 00:16:09;;;;;;;5.15;2.58;;;;;;;6.94;75.65;97178.09;5328637;26;20013;-74
2024/04/16 00:18:41;;;;;;;5.47;2.40;;;;;;;6.93;75.80;97153.19;5370529;26;20001;-74
2024/04/16 00:21:17;;;;;;;5.80;3.30;;;;;;;6.89;75.29;97144.06;5337284;26;20005;-75
2024/04/16 00:23:44;;;;;;;3.53;2.90;;;;;;;6.73;76.28;97163.63;5385342;26;20511;-75
2024/04/16 00:26:10;;;;;;;3.53;2.60;;;;;;;6.74;76.56;97159.91;5378075;26;20000;-75
2024/04/16 00:28:37;;;;;;;3.63;2.50;;;;;;;6.90;76.17;97145.69;5374531;26;20041;-75
2024/04/16 00:31:09;;;;;;;4.35;2.50;;;;;;;6.92;75.93;97146.25;5347648;26;20035;-74
2024/04/16 00:33:35;;;;;;;2.50;2.28;;;;;;;6.86;75.66;97130.38;5356840;26;20015;-73
2024/04/16 00:36:01;;;;;;;5.68;2.88;;;;;;;6.82;76.07;97130.03;5367541;26;20402;-74
2024/04/16 00:38:46;;;;;;;;;;;;;;;;;;;;;
2024/04/16 00:41:23;;;;;;;4.38;2.80;;;;;;;6.74;76.25;97151.88;5373375;26;20011;-73
2024/04/16 00:43:52;;;;;;;4.40;2.92;;;;;;;6.84;76.10;97127.94;5381628;26;20003;-73
2024/04/16 00:46:22;;;;;;;4.53;2.78;;;;;;;6.80;76.36;97140.19;5391548;26;20020;-75
2024/04/16 00:48:48;;;;;;;5.13;2.75;;;;;;;6.75;75.74;97121.38;5418908;26;20010;-73
2024/04/16 00:51:16;;;;;;;6.03;3.08;;;;;;;6.74;75.39;97122.44;5347550;26;20040;-73
2024/04/16 00:53:51;;;;;;;4.22;2.80;;;;;;;6.84;75.76;97101.16;5320203;26;20010;-73
2024/04/16 00:56:17;;;;;;;6.47;3.25;;;;;;;6.84;75.64;97101.16;5364783;26;20030;-74
2024/04/16 00:58:45;;;;;;;6.35;2.97;;;;;;;6.86;75.87;97109.75;5357495;26;20004;-72
2024/04/16 01:01:12;;;;;;;3.45;2.50;;;;;;;6.75;76.22;97091.94;5359018;26;20344;-72
2024/04/16 01:03:37;;;;;;;4.55;3.03;;;;;;;6.61;75.87;97100.56;5380573;26;20337;-73
2024/04/16 01:06:04;;;;;;;6.47;3.20;;;;;;;6.67;76.16;97121.81;5357006;26;20457;-74
2024/04/16 01:08:29;;;;;;;5.03;3.05;;;;;;;6.75;75.87;97121.38;5381545;26;20015;-74
2024/04/16 01:10:55;;;;;;;5.00;2.90;;;;;;;6.74;76.04;97125.13;5333528;26;19996;-74
2024/04/16 01:13:20;;;;;;;4.07;3.10;;;;;;;6.87;75.33;97132.78;5363431;26;20000;-74
2024/04/16 01:15:46;;;;;;;6.95;3.75;;;;;;;6.68;75.41;97112.72;5369788;26;20000;-73
2024/04/16 01:18:11;;;;;;;5.30;3.28;;;;;;;6.79;75.98;97114.47;5327960;26;20019;-74
2024/04/16 01:20:38;;;;;;;6.70;3.22;;;;;;;6.61;76.06;97117.44;5401996;26;20018;-74
2024/04/16 01:23:03;;;;;;;6.72;3.50;;;;;;;6.69;75.97;97119.69;5379636;26;20027;-73
2024/04/16 01:25:30;;;;;;;5.47;3.50;;;;;;;6.70;75.56;97121.31;5364972;26;20004;-74
2024/04/16 01:27:59;;;;;;;5.22;3.20;;;;;;;6.72;75.20;97118.41;5371038;26;20365;-74
2024/04/16 01:30:27;;;;;;;5.03;3.88;;;;;;;6.52;75.74;97097.50;5298645;26;20073;-74
2024/04/16 01:32:56;;;;;;;4.93;3.53;;;;;;;6.60;75.59;97083.72;5366521;26;20000;-75
2024/04/16 01:35:23;;;;;;;7.00;3.03;;;;;;;6.69;75.66;97098.31;5378558;26;20008;-75
2024/04/16 01:37:55;;;;;;;6.90;3.40;;;;;;;6.73;75.42;97094.06;5331185;26;20018;-75
2024/04/16 01:40:24;;;;;;;7.38;3.50;;;;;;;6.63;75.59;97083.22;5377011;26;20814;-74
2024/04/16 01:42:51;;;;;;;9.10;3.35;;;;;;;6.73;74.98;97088.72;5356706;26;20522;-73
2024/04/16 01:45:17;;;;;;;4.10;3.30;;;;;;;6.79;75.19;97087.72;5352927;26;20044;-75
2024/04/16 01:47:43;;;;;;;6.20;3.67;;;;;;;6.69;75.20;97068.88;5377595;26;20455;-75
2024/04/16 01:50:10;;;;;;;6.55;3.53;;;;;;;6.74;75.56;97079.66;5338660;26;20015;-75
2024/04/16 01:52:39;;;;;;;6.90;3.40;;;;;;;6.78;74.92;97091.47;5295104;26;20033;-75
2024/04/16 01:55:07;;;;;;;4.78;3.28;;;;;;;6.66;75.40;97077.38;5350772;26;20010;-74
2024/04/16 01:57:33;;;;;;;5.38;3.33;;;;;;;6.70;75.63;97078.50;5347537;26;20007;-74
2024/04/16 02:00:00;;;;;;;4.47;3.03;;;;;;;6.70;75.72;97089.19;5379874;26;20258;-75
2024/04/16 02:02:26;;;;;;;5.25;3.55;;;;;;;6.83;75.42;97078.16;5389703;26;20004;-74
2024/04/16 02:04:55;;;;;;;7.78;3.00;;;;;;;6.73;74.32;97071.84;5358605;26;20006;-73
2024/04/16 02:07:23;;;;;;;6.30;2.90;;;;;;;6.84;73.82;97076.25;5343023;26;20032;-74
2024/04/16 02:09:51;;;;;;;5.40;2.95;;;;;;;6.88;74.12;97064.81;5344325;26;20397;-73
2024/04/16 02:12:18;;;;;;;6.65;2.92;;;;;;;6.72;74.32;97046.16;5367743;26;20329;-75
2024/04/16 02:14:44;;;;;;;4.00;2.42;;;;;;;6.52;74.20;97022.63;5359714;26;20011;-73
2024/04/16 02:17:12;;;;;;;7.00;3.15;;;;;;;6.63;74.43;97029.72;5383080;26;20399;-73
2024/04/16 02:19:40;;;;;;;3.53;2.67;;;;;;;6.77;74.23;97041.66;5357945;26;19992;-73
2024/04/16 02:22:09;;;;;;;5.22;2.83;;;;;;;6.80;74.47;97046.53;5378627;26;20046;-74
2024/04/16 02:24:37;;;;;;;10.00;3.30;;;;;;;6.92;74.32;97046.41;5275459;26;19999;-73
2024/04/16 02:27:03;;;;;;;6.93;3.10;;;;;;;7.00;73.98;97037.16;5376966;26;20376;-74
2024/04/16 02:29:28;;;;;;;6.85;2.92;;;;;;;6.92;74.26;97060.59;5365214;26;19999;-74
2024/04/16 02:31:54;;;;;;;5.50;2.50;;;;;;;6.89;74.18;97038.88;5360093;26;20052;-74
2024/04/16 02:34:20;;;;;;;5.38;2.47;;;;;;;6.84;74.13;97050.31;5372427;26;19999;-74
2024/04/16 02:36:50;;;;;;;5.30;2.63;;;;;;;6.87;74.43;97055.19;5364424;26;20005;-73
2024/04/16 02:39:26;;;;;;;5.60;2.80;;;;;;;7.01;73.99;97057.47;5375319;26;19999;-74
2024/04/16 02:42:15;;;;;;;8.05;3.08;;;;;;;6.90;74.60;97052.03;5362814;26;19996;-73
2024/04/16 02:44:48;;;;;;;6.80;2.78;;;;;;;7.00;73.86;97058.56;5340882;26;20016;-74
2024/04/16 02:47:19;;;;;;;6.03;2.90;;;;;;;7.07;73.65;97048.47;5333456;26;20004;-73
2024/04/16 02:49:48;;;;;;;7.00;2.78;;;;;;;6.97;74.16;97035.78;5336617;26;20001;-74
2024/04/16 02:52:16;;;;;;;7.53;2.63;;;;;;;6.94;74.58;97050.47;5338949;26;20464;-73
2024/04/16 02:54:44;;;;;;;9.23;2.90;;;;;;;6.91;74.70;97040.25;5311121;26;20012;-74
2024/04/16 02:57:11;;;;;;;6.63;2.78;;;;;;;6.80;74.95;97030.47;5368038;26;20007;-74
2024/04/16 02:59:36;;;;;;;6.13;3.05;;;;;;;6.70;75.11;97000.91;5364526;26;20383;-74
2024/04/16 03:02:02;;;;;;;7.50;2.92;;;;;;;6.89;74.39;97012.94;5362351;26;20009;-74
2024/04/16 03:04:27;;;;;;;6.50;2.78;;;;;;;6.94;74.83;97021.03;5396594;26;20016;-74
2024/04/16 03:06:52;;;;;;;5.65;3.28;;;;;;;6.92;74.86;97015.13;5343865;26;20011;-74
2024/04/16 03:09:18;;;;;;;7.05;3.15;;;;;;;6.80;75.49;97009.06;5350930;26;20863;-74
2024/04/16 03:11:43;;;;;;;6.53;3.20;;;;;;;6.82;75.42;97008.81;5365886;26;20012;-75
2024/04/16 03:14:15;;;;;;;9.52;3.42;;;;;;;6.87;74.87;97004.34;5368900;26;20023;-75
2024/04/16 03:16:52;;;;;;;9.25;3.50;;;;;;;6.70;75.02;96992.91;5346911;26;20387;-76
2024/04/16 03:19:19;;;;;;;6.85;3.15;;;;;;;6.89;74.89;97004.91;5395404;26;20000;-76
2024/04/16 03:21:50;;;;;;;7.03;3.10;;;;;;;6.78;75.23;96997.81;5380698;26;20413;-75
2024/04/16 03:24:18;;;;;;;6.05;3.20;;;;;;;6.71;75.48;97005.22;5352408;26;20078;-72
2024/04/16 03:26:51;;;;;;;6.65;3.22;;;;;;;6.81;75.27;96997.31;5361072;26;20008;-73
2024/04/16 03:29:18;;;;;;;5.40;2.97;;;;;;;6.82;74.96;96993.56;5367034;26;20019;-72
2024/04/16 03:31:46;;;;;;;8.18;3.20;;;;;;;6.83;74.56;96979.16;5343329;26;20011;-75
2024/04/16 03:34:11;;;;;;;6.32;2.95;;;;;;;6.71;75.56;96983.81;5317056;21;20062;-71
2024/04/16 03:36:37;;;;;;;6.80;3.08;;;;;;;6.75;75.09;96978.75;5253030;27;20007;-71
2024/04/16 03:39:02;;;;;;;8.65;3.10;;;;;;;6.49;74.74;96961.59;5245779;27;20330;-72
2024/04/16 03:41:28;;;;;;;4.80;2.58;;;;;;;6.58;74.79;96984.19;5267096;27;20003;-72
2024/04/16 03:43:53;;;;;;;7.18;3.10;;;;;;;6.60;74.99;96991.97;5248523;27;20010;-72
2024/04/16 03:46:18;;;;;;;7.22;3.50;;;;;;;6.62;74.75;96982.66;5250298;27;20006;-72
2024/04/16 03:48:44;;;;;;;7.47;3.38;;;;;;;6.56;74.64;96986.28;5248880;27;20034;-72
2024/04/16 03:51:09;;;;;;;9.80;3.00;;;;;;;6.80;74.54;96998.38;5259526;27;20006;-71
2024/04/16 03:53:35;;;;;;;5.47;2.67;;;;;;;6.69;74.54;97002.00;5282645;27;20003;-73
2024/04/16 03:56:00;;;;;;;8.40;2.83;;;;;;;6.68;74.56;97011.06;5265958;27;20038;-73
2024/04/16 03:58:29;;;;;;;5.50;2.78;;;;;;;6.55;74.67;97006.09;5262594;27;20002;-73
2024/04/16 04:01:03;;;;;;;5.57;2.70;;;;;;;6.52;74.34;97016.47;5275564;27;20034;-74
2024/04/16 04:03:29;;;;;;;5.70;2.70;;;;;;;6.57;74.50;97020.03;5278009;27;20021;-74
2024/04/16 04:05:55;;;;;;;8.70;2.85;;;;;;;6.49;74.49;97023.09;5280059;27;20063;-74
2024/04/16 04:08:21;;;;;;;5.93;2.30;;;;;;;6.53;74.03;96996.69;5280236;27;19999;-75
2024/04/16 04:10:46;;;;;;;6.22;2.42;;;;;;;6.39;74.32;97014.16;5236332;27;20017;-75
2024/04/16 04:13:12;;;;;;;4.75;2.33;;;;;;;6.16;75.62;97015.97;5276324;27;20017;-75
2024/04/16 04:15:37;;;;;;;6.32;2.92;;;;;;;6.17;76.14;97032.81;5220269;27;20017;-75
2024/04/16 04:18:03;;;;;;;5.03;2.47;;;;;;;6.11;76.79;97025.78;5281043;27;20371;-75
2024/04/16 04:20:28;;;;;;;5.40;2.42;;;;;;;5.93;76.92;96993.97;5251091;27;20007;-74
2024/04/16 04:22:54;;;;;;;4.85;2.60;;;;;;;5.82;77.88;96989.50;5278972;27;20006;-74
2024/04/16 04:25:20;;;;;;;7.22;2.50;;;;;;;5.93;77.47;96965.38;5264919;27;20017;-75
2024/04/16 04:27:45;;;;;;;5.70;3.63;;;;;;;6.24;76.96;96934.56;5276789;27;20006;-75
2024/04/16 04:30:11;;;;;;;169.27;134.23;;;;;;;6.04;77.44;97009.13;5276534;27;20013;-74
2024/04/16 04:32:36;;;;;;;10.07;6.55;;;;;;;5.89;77.57;97004.34;5275592;27;20017;-74
2024/04/16 04:35:02;;;;;;;36.45;26.90;;;;;;;5.74;76.80;97016.63;5279472;27;20006;-74
2024/04/16 04:37:28;;;;;;;4.93;4.43;;;;;;;5.86;76.06;97022.72;5274909;27;20344;-74
2024/04/16 04:39:53;;;;;;;3.75;2.05;;;;;;;5.80;76.19;97055.72;5250516;27;20088;-75
2024/04/16 04:42:19;;;;;;;3.67;1.90;;;;;;;5.60;75.85;97032.94;5276383;27;20006;-73
2024/04/16 04:44:45;;;;;;;3.22;2.33;;;;;;;5.56;75.85;97045.16;5278565;27;20085;-74
2024/04/16 04:47:10;;;;;;;3.80;2.22;;;;;;;5.65;75.89;97066.16;5277486;27;20014;-74
2024/04/16 04:49:36;;;;;;;3.83;2.53;;;;;;;5.59;75.82;97058.03;5283555;27;20013;-72
2024/04/16 04:52:02;;;;;;;4.32;3.00;;;;;;;5.63;76.10;97065.56;5255708;27;20006;-72
2024/04/16 04:54:27;;;;;;;5.38;2.20;;;;;;;5.70;76.22;97072.38;5287177;26;20017;-73
2024/04/16 04:56:53;;;;;;;4.10;2.58;;;;;;;5.78;76.34;97079.19;5276342;27;20419;-73
2024/04/16 04:59:18;;;;;;;5.43;2.60;;;;;;;5.92;76.44;97088.53;5277719;27;20013;-73
2024/04/16 05:01:43;;;;;;;3.25;2.05;;;;;;;5.92;76.43;97075.19;5245591;27;20340;-74
2024/04/16 05:04:09;;;;;;;3.55;2.05;;;;;;;5.74;76.80;97099.44;5257104;27;20490;-73
2024/04/16 05:06:37;;;;;;;3.03;2.03;;;;;;;5.68;77.13;97100.38;5275475;27;20017;-75
2024/04/16 05:09:02;;;;;;;3.55;2.05;;;;;;;5.81;76.45;97092.06;5247719;27;20010;-74
2024/04/16 05:11:28;;;;;;;3.30;2.20;;;;;;;5.58;76.46;97107.16;5260310;27;20021;-74
2024/04/16 05:13:53;;;;;;;3.47;1.90;;;;;;;5.66;76.43;97102.47;5247052;27;20010;-75
2024/04/16 05:16:18;;;;;;;3.47;2.00;;;;;;;5.64;76.27;97120.59;5274879;27;20402;-72
2024/04/16 05:18:44;;;;;;;3.45;1.85;;;;;;;5.64;76.62;97120.59;5277057;27;20050;-76
2024/04/16 05:21:10;;;;;;;3.30;2.10;;;;;;;5.62;77.10;97128.03;5274978;27;20003;-75
2024/04/16 05:23:35;;;;;;;6.65;4.30;;;;;;;5.64;77.13;97137.44;5274438;27;20053;-75
2024/04/16 05:26:02;;;;;;;65.68;50.28;;;;;;;5.50;77.10;97115.56;5243238;27;20002;-75
2024/04/16 05:28:28;;;;;;;68.53;50.88;;;;;;;5.55;76.73;97112.97;5247083;27;20002;-77
2024/04/16 05:30:54;;;;;;;25.98;16.88;;;;;;;5.65;76.67;97111.56;5274939;27;20002;-77
2024/04/16 05:33:19;;;;;;;19.63;13.88;;;;;;;5.59;77.14;97134.66;5245689;27;20014;-73
2024/04/16 05:35:44;;;;;;;54.47;34.72;;;;;;;5.65;77.12;97130.25;5274764;27;20442;-76
2024/04/16 05:38:10;;;;;;;60.58;39.55;;;;;;;5.81;77.04;97142.81;5251942;27;20009;-75
2024/04/16 05:40:35;;;;;;;7.30;4.60;;;;;;;5.74;76.98;97142.94;5246868;27;20002;-75
2024/04/16 05:43:01;;;;;;;9.18;5.65;;;;;;;5.71;76.92;97129.28;5273838;27;20041;-75
2024/04/16 05:45:26;;;;;;;3.85;3.28;;;;;;;5.45;77.42;97102.13;5274501;27;20473;-75
2024/04/16 05:47:51;;;;;;;4.40;2.83;;;;;;;5.71;76.68;97121.25;5274724;27;20014;-75
2024/04/16 05:50:17;;;;;;;7.43;3.40;;;;;;;5.52;76.24;97065.41;5286762;27;20001;-75
2024/04/16 05:52:42;;;;;;;6.00;3.03;;;;;;;5.76;76.34;97110.69;5269754;27;20021;-75
2024/04/16 05:55:08;;;;;;;6.75;2.60;;;;;;;5.89;76.48;97123.75;5274585;27;20007;-75
2024/04/16 05:57:34;;;;;;;5.55;3.60;;;;;;;5.89;76.13;97107.72;5265213;27;19999;-75
2024/04/16 05:59:59;;;;;;;4.28;2.85;;;;;;;5.93;76.21;97108.84;5246678;27;20017;-76
2024/04/16 06:02:25;;;;;;;4.45;2.55;;;;;;;5.93;76.11;97115.00;5273102;27;20461;-75
2024/04/16 06:04:50;;;;;;;8.35;4.50;;;;;;;6.00;75.84;97121.00;5219026;27;20053;-76
2024/04/16 06:07:15;;;;;;;7.47;5.55;;;;;;;5.89;75.84;97099.69;5238135;27;20018;-76
2024/04/16 06:09:41;;;;;;;7.63;4.10;;;;;;;5.85;75.71;97101.25;5267883;27;20062;-76
2024/04/16 06:12:06;;;;;;;6.63;3.17;;;;;;;6.05;75.39;97150.50;5270384;27;20006;-75
2024/04/16 06:14:32;;;;;;;4.82;3.30;;;;;;;5.75;75.96;97114.38;5277620;27;20013;-75
2024/04/16 06:16:58;;;;;;;9.25;5.03;;;;;;;6.12;75.49;97150.34;5277619;27;20109;-75
2024/04/16 06:19:23;;;;;;;7.80;4.03;;;;;;;5.80;75.76;97135.84;5278131;27;20680;-75
2024/04/16 06:21:48;;;;;;;4.60;2.63;;;;;;;6.23;75.38;97136.09;5220653;27;20002;-75
2024/04/16 06:24:14;;;;;;;5.28;2.90;;;;;;;6.10;75.16;97115.03;5277398;27;20007;-74
2024/04/16 06:26:39;;;;;;;6.82;3.53;;;;;;;6.13;74.36;97115.38;5277329;27;20002;-75
2024/04/16 06:29:05;;;;;;;5.43;4.00;;;;;;;6.16;74.47;97135.47;5251045;27;20451;-75
2024/04/16 06:31:30;;;;;;;6.50;4.07;;;;;;;6.18;74.87;97134.13;5277236;27;20003;-75
2024/04/16 06:33:56;;;;;;;6.50;3.42;;;;;;;6.26;74.43;97124.91;5277847;27;20018;-75
2024/04/16 06:36:21;;;;;;;4.53;3.10;;;;;;;6.28;74.14;97128.16;5277907;27;20006;-75
2024/04/16 06:38:47;;;;;;;3.45;3.15;;;;;;;6.21;74.11;97139.00;5273299;27;20077;-75
2024/04/16 06:41:12;;;;;;;5.25;2.92;;;;;;;6.41;74.32;97149.22;5276955;27;20002;-75
2024/04/16 06:43:38;;;;;;;4.43;2.40;;;;;;;6.42;74.08;97144.69;5278289;27;20015;-75
2024/04/16 06:46:04;;;;;;;3.28;2.50;;;;;;;6.45;74.13;97134.31;5279922;27;20013;-75
2024/04/16 06:48:30;;;;;;;5.75;2.35;;;;;;;6.51;74.44;97137.88;5278232;27;20030;-75
2024/04/16 06:50:56;;;;;;;5.65;2.75;;;;;;;6.47;73.94;97100.09;5277968;27;20094;-75
2024/04/16 06:53:21;;;;;;;3.95;2.10;;;;;;;6.47;74.58;97118.81;5277158;27;20014;-75
2024/04/16 06:56:03;;;;;;;8.75;3.90;;;;;;;6.57;73.87;97105.63;5221484;27;20010;-75
2024/04/16 06:58:28;;;;;;;6.05;2.30;;;;;;;6.64;72.74;97133.00;5278376;27;20006;-76
2024/04/16 07:00:57;;;;;;;6.07;2.40;;;;;;;6.62;72.44;97127.09;5279366;27;20050;-75
2024/04/16 07:03:24;;;;;;;6.80;2.38;;;;;;;6.54;72.96;97138.19;5249025;27;20413;-75
2024/04/16 07:05:49;;;;;;;6.25;2.95;;;;;;;6.62;73.11;97124.41;5249529;27;20343;-75
2024/04/16 07:08:18;;;;;;;6.25;2.55;;;;;;;6.55;72.11;97097.03;5289338;27;20021;-75
2024/04/16 07:10:45;;;;;;;5.70;2.60;;;;;;;6.69;71.71;97114.34;5243802;27;20006;-75
2024/04/16 07:13:10;;;;;;;7.05;2.33;;;;;;;6.76;70.05;97109.63;5248657;27;20020;-75
2024/04/16 07:15:36;;;;;;;5.63;2.40;;;;;;;6.75;70.18;97108.00;5277818;27;20002;-75
2024/04/16 07:18:02;;;;;;;5.20;2.35;;;;;;;6.79;69.87;97103.78;5277644;27;20021;-75
2024/04/16 07:20:27;;;;;;;8.65;2.40;;;;;;;6.76;69.24;97109.63;5277047;27;20006;-75
2024/04/16 07:22:53;;;;;;;7.13;2.55;;;;;;;6.88;69.48;97098.81;5247869;27;20006;-75
2024/04/16 07:25:18;;;;;;;6.18;2.80;;;;;;;6.89;68.53;97114.63;5248989;27;20074;-75
2024/04/16 07:27:44;;;;;;;9.32;2.60;;;;;;;6.83;67.99;97104.91;5249601;27;20018;-75
2024/04/16 07:30:10;;;;;;;5.50;2.40;;;;;;;6.96;68.40;97082.31;5277404;27;20540;-75
2024/04/16 07:32:35;;;;;;;6.70;2.90;;;;;;;7.12;67.35;97092.16;5220270;27;20014;-76
2024/04/16 07:35:00;;;;;;;4.95;2.30;;;;;;;7.28;67.63;97091.28;5221586;27;20458;-74
2024/04/16 07:37:26;;;;;;;5.72;2.55;;;;;;;7.43;67.33;97079.94;5240865;27;20354;-75
2024/04/16 07:39:51;;;;;;;7.03;2.58;;;;;;;7.29;66.71;97065.31;5277729;27;20021;-75
2024/04/16 07:42:17;;;;;;;6.47;2.78;;;;;;;7.35;65.85;97064.31;5276132;27;20002;-75
2024/04/16 07:44:42;;;;;;;10.43;2.85;;;;;;;7.39;65.44;97044.00;5277183;27;20007;-75
2024/04/16 07:47:07;;;;;;;6.20;2.55;;;;;;;7.64;64.95;97068.34;5259410;27;20018;-76
2024/04/16 07:49:33;;;;;;;5.40;2.20;;;;;;;7.60;64.36;97061.91;5277922;27;20010;-75
2024/04/16 07:51:58;;;;;;;9.27;2.88;;;;;;;7.64;63.80;97071.03;5253361;27;20441;-74
2024/04/16 07:54:24;;;;;;;8.35;3.08;;;;;;;7.70;64.67;97078.09;5277346;27;20442;-75
2024/04/16 07:56:52;;;;;;;6.38;2.47;;;;;;;7.74;64.15;97078.38;5220846;27;20010;-75
2024/04/16 07:59:18;;;;;;;5.70;2.63;;;;;;;7.58;64.79;97074.75;5305624;26;20342;-75
2024/04/16 08:01:43;;;;;;;8.23;2.83;;;;;;;7.79;63.95;97076.56;5248405;27;20458;-75
2024/04/16 08:04:09;;;;;;;5.25;2.70;;;;;;;7.77;64.08;97073.28;5276589;27;20006;-75
2024/04/16 08:06:34;;;;;;;7.78;2.67;;;;;;;7.63;64.46;97083.63;5249315;27;20013;-75
2024/04/16 08:08:59;;;;;;;5.70;2.40;;;;;;;7.50;64.31;97059.09;5276987;27;20002;-75
2024/04/16 08:11:25;;;;;;;8.23;3.08;;;;;;;7.38;64.53;97056.56;5261861;27;20434;-74
2024/04/16 08:13:50;;;;;;;5.38;2.60;;;;;;;7.46;64.95;97053.47;5267380;27;20076;-75
2024/04/16 08:16:16;;;;;;;8.60;2.70;;;;;;;7.33;64.86;97045.81;5281143;27;20003;-75
2024/04/16 08:18:41;;;;;;;7.22;2.53;;;;;;;7.71;64.49;97079.69;5276335;27;20025;-75
2024/04/16 08:21:07;;;;;;;8.07;3.42;;;;;;;7.50;64.25;97057.25;5277442;27;20469;-75
2024/04/16 08:23:32;;;;;;;5.57;2.80;;;;;;;7.58;64.52;97027.31;5252001;27;19998;-75
2024/04/16 08:26:01;;;;;;;10.18;2.78;;;;;;;7.91;65.08;97042.34;5295419;27;20010;-75
2024/04/16 08:28:27;;;;;;;8.48;2.60;;;;;;;8.06;64.29;97044.34;5248514;27;20091;-75
2024/04/16 08:30:53;;;;;;;8.38;2.90;;;;;;;8.12;64.63;97046.00;5276853;27;20014;-75
2024/04/16 08:33:22;;;;;;;6.43;2.78;;;;;;;8.38;64.42;97049.72;5274929;27;20016;-75
2024/04/16 08:35:51;;;;;;;6.22;2.70;;;;;;;8.39;64.41;97051.31;5276659;27;20014;-75
2024/04/16 08:38:17;;;;;;;8.20;2.65;;;;;;;8.32;63.27;97044.31;5248501;27;20499;-75
2024/04/16 08:40:45;;;;;;;8.27;2.95;;;;;;;8.17;63.78;97029.94;5278847;27;20862;-76
2024/04/16 08:43:10;;;;;;;5.57;2.53;;;;;;;8.18;63.71;97048.47;5275812;27;20080;-75
2024/04/16 08:45:36;;;;;;;6.68;2.50;;;;;;;7.91;63.30;97020.09;5277112;27;20013;-76
2024/04/16 08:48:01;;;;;;;5.15;2.15;;;;;;;8.05;63.88;97043.53;5276467;27;20470;-75
2024/04/16 08:50:27;;;;;;;7.13;2.40;;;;;;;8.02;63.16;97033.34;5248179;27;20018;-75
2024/04/16 08:52:55;;;;;;;6.55;2.50;;;;;;;8.15;63.08;97054.34;5280149;27;20002;-75
2024/04/16 08:55:20;;;;;;;8.77;2.60;;;;;;;8.05;63.06;97032.00;5276143;27;20706;-75
2024/04/16 08:57:46;;;;;;;6.20;2.05;;;;;;;8.17;63.33;97033.44;5280296;27;20028;-75
2024/04/16 09:00:12;;;;;;;8.45;2.30;;;;;;;7.99;62.38;97022.28;5272497;27;20002;-76
2024/04/16 09:02:38;;;;;;;8.90;2.60;;;;;;;8.19;62.01;97033.97;5281909;27;20416;-75
2024/04/16 09:05:07;;;;;;;5.53;1.90;;;;;;;8.25;61.70;97043.69;5277928;26;20002;-75
2024/04/16 09:07:33;;;;;;;5.80;2.22;;;;;;;8.23;62.48;97035.09;5275683;27;19998;-75
2024/04/16 09:09:59;;;;;;;4.13;2.15;;;;;;;8.37;62.18;97026.63;5275789;27;20074;-75
2024/04/16 09:12:24;;;;;;;6.13;2.28;;;;;;;8.35;62.92;97032.25;5276237;27;19998;-75
2024/04/16 09:14:50;;;;;;;5.18;2.08;;;;;;;8.41;61.94;97030.41;5275652;27;20007;-75
2024/04/16 09:17:15;;;;;;;3.83;2.00;;;;;;;8.53;62.37;97012.22;5255798;27;20017;-75
2024/04/16 09:19:41;;;;;;;5.30;2.20;;;;;;;8.34;62.27;97015.34;5276238;27;20476;-75
2024/04/16 09:22:07;;;;;;;7.78;1.83;;;;;;;8.50;61.57;97015.41;5246572;27;20003;-75
2024/04/16 09:24:32;;;;;;;6.03;2.08;;;;;;;8.47;61.57;97006.00;5275953;27;20006;-75
2024/04/16 09:27:03;;;;;;;5.65;1.98;;;;;;;8.99;61.95;97027.47;5270990;27;20002;-75
2024/04/16 09:29:28;;;;;;;5.00;1.92;;;;;;;9.28;61.53;97025.97;5276714;27;20466;-76
2024/04/16 09:32:00;;;;;;;6.90;2.00;;;;;;;9.06;60.28;97011.94;5226353;27;20016;-75
2024/04/16 09:34:26;;;;;;;5.43;1.90;;;;;;;8.98;60.72;96993.66;5277190;27;20080;-74
2024/04/16 09:36:52;;;;;;;6.78;1.90;;;;;;;8.75;63.81;97042.41;5303752;27;20010;-75
2024/04/16 09:39:19;;;;;;;4.68;2.40;;;;;;;8.64;64.40;97040.72;5275235;27;20463;-75
2024/04/16 09:41:47;;;;;;;5.78;1.80;;;;;;;8.53;65.49;97033.69;5287275;27;20009;-76
2024/04/16 09:44:13;;;;;;;4.53;2.00;;;;;;;8.51;66.62;97014.38;5258060;27;19999;-75
2024/04/16 09:46:39;;;;;;;6.93;2.03;;;;;;;9.00;66.66;96997.69;5287064;27;19998;-75
2024/04/16 09:49:07;;;;;;;5.78;2.30;;;;;;;9.03;66.38;96991.00;5331742;21;20005;-76
2024/04/16 09:51:33;;;;;;;3.47;1.98;;;;;;;9.03;64.84;96994.47;5374706;26;20010;-77
2024/04/16 09:53:59;;;;;;;4.60;1.83;;;;;;;9.20;63.71;97002.31;5389764;26;20099;-76
2024/04/16 09:56:27;;;;;;;4.15;1.50;;;;;;;9.23;61.98;97001.78;5374295;26;20012;-76
2024/04/16 09:58:54;;;;;;;6.43;2.05;;;;;;;9.24;62.14;96971.13;5379457;26;20470;-76
2024/04/16 10:01:20;;;;;;;3.05;1.70;;;;;;;9.64;62.82;96978.44;5329599;26;20363;-76
2024/04/16 10:03:48;;;;;;;4.35;2.10;;;;;;;9.92;62.85;96969.84;5338674;26;20457;-77
2024/04/16 10:06:13;;;;;;;4.68;2.00;;;;;;;9.67;61.18;96968.00;5293872;26;20115;-76
2024/04/16 10:08:39;;;;;;;4.80;1.83;;;;;;;9.51;60.89;96944.88;5350687;26;20013;-76
2024/04/16 10:11:05;;;;;;;5.82;1.75;;;;;;;9.64;60.56;96960.44;5300437;26;20024;-76
2024/04/16 10:13:33;;;;;;;3.30;1.55;;;;;;;9.27;61.06;96938.38;5322879;26;20048;-77
2024/04/16 10:15:58;;;;;;;3.45;1.80;;;;;;;9.14;61.08;96959.59;5372007;26;20073;-76
2024/04/16 10:18:24;;;;;;;4.88;1.63;;;;;;;9.24;62.34;96976.50;5346650;26;20017;-77
2024/04/16 10:20:52;;;;;;;3.67;1.80;;;;;;;9.27;62.66;96965.25;5287867;26;20004;-76
2024/04/16 10:23:18;;;;;;;4.68;1.92;;;;;;;9.32;61.33;96954.50;5326410;26;20012;-76
2024/04/16 10:25:53;;;;;;;3.85;1.63;;;;;;;9.24;60.91;96954.25;5328592;26;20204;-77
2024/04/16 10:28:33;;;;;;;3.13;1.40;;;;;;;9.22;60.69;96962.53;5309209;26;20028;-76
2024/04/16 10:31:16;;;;;;;8.73;5.32;;;;;;;9.28;61.04;96961.50;5346333;26;20001;-77
2024/04/16 10:33:46;;;;;;;3.05;1.20;;;;;;;9.27;61.18;96965.25;5342485;26;20044;-77
2024/04/16 10:36:15;;;;;;;3.70;1.35;;;;;;;9.20;61.84;96963.88;5296643;26;20005;-77
2024/04/16 10:38:41;;;;;;;4.80;1.65;;;;;;;9.16;62.55;96963.63;5284445;26;20015;-76
2024/04/16 10:41:07;;;;;;;4.43;1.20;;;;;;;9.06;63.04;96963.59;5295834;26;20016;-76
2024/04/16 10:43:38;;;;;;;3.55;1.50;;;;;;;9.13;63.20;96958.78;5298477;26;20005;-76
2024/04/16 10:46:06;;;;;;;5.28;1.33;;;;;;;9.01;62.95;96955.50;5326672;26;20015;-76
2024/04/16 10:48:31;;;;;;;3.60;1.63;;;;;;;9.09;62.91;96951.50;5311216;26;20595;-76
2024/04/16 10:50:58;;;;;;;2.72;1.40;;;;;;;9.27;62.53;96937.56;5310227;26;20761;-76
2024/04/16 10:53:24;;;;;;;5.72;1.35;;;;;;;9.00;63.50;96910.94;5316859;26;20005;-76
2024/04/16 10:55:50;;;;;;;4.93;1.92;;;;;;;9.01;65.17;96939.41;5312727;26;20024;-75
2024/04/16 10:58:15;;;;;;;2.95;1.45;;;;;;;8.82;67.40;96954.41;5318046;26;20015;-76
2024/04/16 11:00:41;;;;;;;3.60;1.70;;;;;;;8.78;68.57;96946.06;5340495;26;19993;-76
2024/04/16 11:03:11;;;;;;;3.50;1.60;;;;;;;8.67;70.90;96919.44;5301281;26;20457;-76
2024/04/16 11:05:38;;;;;;;4.20;1.80;;;;;;;8.72;70.55;96946.31;5317089;26;20012;-77
2024/04/16 11:08:04;;;;;;;5.72;2.17;;;;;;;8.85;70.28;96943.13;5282726;27;20001;-76
2024/04/16 11:10:29;;;;;;;4.07;1.80;;;;;;;8.93;69.20;96921.13;5333087;26;20015;-76
2024/04/16 11:12:55;;;;;;;4.68;1.88;;;;;;;9.23;68.70;96940.00;5341022;26;20019;-76
2024/04/16 11:15:20;;;;;;;4.28;1.23;;;;;;;9.06;68.95;96923.31;5266012;26;20000;-77
2024/04/16 11:17:45;;;;;;;2.75;1.45;;;;;;;8.93;68.72;96883.56;5357035;26;20075;-77
2024/04/16 11:20:11;;;;;;;5.18;1.60;;;;;;;8.88;68.87;96895.09;5330774;26;20459;-77
2024/04/16 11:22:37;;;;;;;4.85;1.70;;;;;;;8.86;68.81;96917.91;5335524;26;20000;-76
2024/04/16 11:25:12;;;;;;;4.50;1.70;;;;;;;9.18;68.49;96918.50;5339263;26;20017;-76
2024/04/16 11:27:37;;;;;;;3.08;1.88;;;;;;;9.13;69.20;96915.81;5329546;26;20533;-77
2024/04/16 11:30:03;;;;;;;3.05;1.60;;;;;;;8.91;69.08;96901.81;5340443;26;20005;-77
2024/04/16 11:32:31;;;;;;;2.38;1.50;;;;;;;8.84;70.24;96933.47;5286025;26;20013;-76
2024/04/16 11:34:56;;;;;;;3.25;1.40;;;;;;;8.57;70.97;96897.94;5314837;26;19997;-77
2024/04/16 11:37:22;;;;;;;2.83;1.58;;;;;;;8.53;72.80;96929.06;5316729;26;20072;-76
2024/04/16 11:39:47;;;;;;;4.03;2.00;;;;;;;8.34;74.42;96913.41;5334546;26;20039;-77